createdAt,value
2023-05-01T00:00:10.033Z,5.65
2023-05-01T00:00:22.265Z,5.95
2023-05-01T00:00:34.753Z,5.82
2023-05-01T00:00:47.793Z,6.30
2023-05-01T00:01:00.694Z,5.95
2023-05-01T00:01:12.642Z,5.90
2023-05-01T00:01:24.606Z,5.95
2023-05-01T00:01:36.493Z,5.90
2023-05-01T00:01:48.443Z,5.60
2023-05-01T00:02:01.806Z,5.38
2023-05-01T00:02:13.835Z,5.10
2023-05-01T00:02:27.183Z,4.72
2023-05-01T00:02:39.352Z,4.78
2023-05-01T00:02:51.478Z,5.30
2023-05-01T00:03:03.713Z,5.45
2023-05-01T00:03:18.069Z,5.60
2023-05-01T00:03:30.438Z,5.20
2023-05-01T00:03:42.690Z,5.18
2023-05-01T00:03:55.031Z,4.78
2023-05-01T00:04:07.420Z,5.15
2023-05-01T00:04:21.837Z,5.50
2023-05-01T00:04:34.305Z,5.15
2023-05-01T00:04:46.654Z,4.82
2023-05-01T00:04:58.713Z,4.72
2023-05-01T00:05:11.444Z,4.85
2023-05-01T00:05:23.626Z,4.50
2023-05-01T00:05:35.548Z,4.43
2023-05-01T00:05:48.225Z,4.72
2023-05-01T00:06:02.205Z,5.80
2023-05-01T00:06:14.206Z,6.05
2023-05-01T00:06:26.197Z,5.35
2023-05-01T00:06:40.211Z,4.65
2023-05-01T00:06:53.702Z,4.60
2023-05-01T00:07:05.683Z,5.13
2023-05-01T00:07:18.272Z,6.10
2023-05-01T00:07:31.780Z,6.10
2023-05-01T00:07:47.063Z,8.13
2023-05-01T00:07:58.965Z,8.27
2023-05-01T00:08:12.163Z,5.03
2023-05-01T00:08:24.109Z,5.57
2023-05-01T00:08:36.077Z,8.23
2023-05-01T00:08:49.133Z,7.30
2023-05-01T00:09:01.139Z,6.18
2023-05-01T00:09:13.058Z,4.85
2023-05-01T00:09:27.607Z,5.55
2023-05-01T00:09:40.604Z,5.22
2023-05-01T00:09:52.600Z,4.65
2023-05-01T00:10:07.564Z,4.10
2023-05-01T00:10:20.200Z,4.47
2023-05-01T00:10:35.442Z,5.00
2023-05-01T00:10:47.391Z,6.93
2023-05-01T00:11:03.973Z,6.47
2023-05-01T00:11:16.136Z,5.15
2023-05-01T00:11:28.126Z,6.00
2023-05-01T00:11:40.210Z,5.35
2023-05-01T00:11:52.149Z,4.50
2023-05-01T00:12:04.650Z,4.90
2023-05-01T00:12:18.014Z,6.50
2023-05-01T00:12:32.869Z,6.00
2023-05-01T00:12:44.813Z,5.45
2023-05-01T00:12:56.760Z,6.13
2023-05-01T00:13:09.713Z,6.72
2023-05-01T00:13:24.123Z,5.95
2023-05-01T00:13:36.323Z,4.25
2023-05-01T00:13:48.314Z,5.35
2023-05-01T00:14:00.267Z,6.05
2023-05-01T00:14:12.303Z,5.93
2023-05-01T00:14:24.210Z,5.07
2023-05-01T00:14:36.105Z,5.00
2023-05-01T00:14:48.020Z,5.05
2023-05-01T00:14:59.948Z,4.28
2023-05-01T00:15:11.895Z,4.38
2023-05-01T00:15:23.806Z,4.28
2023-05-01T00:15:36.271Z,4.13
2023-05-01T00:15:48.572Z,4.45
2023-05-01T00:16:00.981Z,5.25
2023-05-01T00:16:14.871Z,5.40
2023-05-01T00:16:27.269Z,4.75
2023-05-01T00:16:39.396Z,4.95
2023-05-01T00:16:51.376Z,5.57
2023-05-01T00:17:03.348Z,5.30
2023-05-01T00:17:15.307Z,4.55
2023-05-01T00:17:28.227Z,4.30
2023-05-01T00:17:40.276Z,5.03
2023-05-01T00:17:53.939Z,5.38
2023-05-01T00:18:06.016Z,5.22
2023-05-01T00:18:17.968Z,5.15
2023-05-01T00:18:30.636Z,6.45
2023-05-01T00:18:42.676Z,6.18
2023-05-01T00:18:55.161Z,5.78
2023-05-01T00:19:08.213Z,5.13
2023-05-01T00:19:20.526Z,5.13
2023-05-01T00:19:32.804Z,5.00
2023-05-01T00:19:44.738Z,4.75
2023-05-01T00:19:56.903Z,4.70
2023-05-01T00:20:09.726Z,4.30
2023-05-01T00:20:23.549Z,4.25
2023-05-01T00:20:35.471Z,5.13
2023-05-01T00:20:47.539Z,4.88
2023-05-01T00:20:59.476Z,5.40
2023-05-01T00:21:11.478Z,5.40
2023-05-01T00:21:23.421Z,5.47
2023-05-01T00:21:35.445Z,5.68
2023-05-01T00:21:48.256Z,5.72
2023-05-01T00:22:00.246Z,6.35
2023-05-01T00:22:12.159Z,6.35
2023-05-01T00:22:24.255Z,6.38
2023-05-01T00:22:39.129Z,4.53
2023-05-01T00:22:51.189Z,4.50
2023-05-01T00:23:03.184Z,4.95
2023-05-01T00:23:15.154Z,4.72
2023-05-01T00:23:27.767Z,4.53
2023-05-01T00:23:39.676Z,4.30
2023-05-01T00:23:51.941Z,4.05
2023-05-01T00:24:04.010Z,4.10
2023-05-01T00:24:17.046Z,7.13
2023-05-01T00:24:28.979Z,7.22
2023-05-01T00:24:40.916Z,7.18
2023-05-01T00:24:53.160Z,4.53
2023-05-01T00:25:05.712Z,4.60
2023-05-01T00:25:18.490Z,4.45
2023-05-01T00:25:31.338Z,4.38
2023-05-01T00:25:43.319Z,3.83
2023-05-01T00:25:55.288Z,4.63
2023-05-01T00:26:07.997Z,5.28
2023-05-01T00:26:20.174Z,5.10
2023-05-01T00:26:32.217Z,4.32
2023-05-01T00:26:44.988Z,3.50
2023-05-01T00:26:56.874Z,3.33
2023-05-01T00:27:08.770Z,3.42
2023-05-01T00:27:20.728Z,4.68
2023-05-01T00:27:32.972Z,5.22
2023-05-01T00:27:44.963Z,4.65
2023-05-01T00:27:57.225Z,4.63
2023-05-01T00:28:09.101Z,4.30
2023-05-01T00:28:21.101Z,3.73
2023-05-01T00:28:33.094Z,3.80
2023-05-01T00:28:45.217Z,3.80
2023-05-01T00:28:58.351Z,4.03
2023-05-01T00:29:10.538Z,4.10
2023-05-01T00:29:22.532Z,3.80
2023-05-01T00:29:34.468Z,3.97
2023-05-01T00:29:46.452Z,4.18
2023-05-01T00:29:58.595Z,4.28
2023-05-01T00:30:11.044Z,3.88
2023-05-01T00:30:22.960Z,4.40
2023-05-01T00:30:35.449Z,4.28
2023-05-01T00:30:47.476Z,3.90
2023-05-01T00:31:00.323Z,4.05
2023-05-01T00:31:12.543Z,4.30
2023-05-01T00:31:25.714Z,3.75
2023-05-01T00:31:40.100Z,4.40
2023-05-01T00:31:52.303Z,4.85
2023-05-01T00:32:05.540Z,4.70
2023-05-01T00:32:17.717Z,4.03
2023-05-01T00:32:29.742Z,3.65
2023-05-01T00:32:41.783Z,3.70
2023-05-01T00:32:53.842Z,3.55
2023-05-01T00:33:05.846Z,3.65
2023-05-01T00:33:17.891Z,4.00
2023-05-01T00:33:29.831Z,4.75
2023-05-01T00:33:41.855Z,5.93
2023-05-01T00:33:53.953Z,5.88
2023-05-01T00:34:06.712Z,3.55
2023-05-01T00:34:18.631Z,3.63
2023-05-01T00:34:31.745Z,3.60
2023-05-01T00:34:45.994Z,4.47
2023-05-01T00:34:57.925Z,4.53
2023-05-01T00:35:11.033Z,3.78
2023-05-01T00:35:23.226Z,3.80
2023-05-01T00:35:37.400Z,3.38
2023-05-01T00:35:51.400Z,4.00
2023-05-01T00:36:03.542Z,4.00
2023-05-01T00:36:15.578Z,3.60
2023-05-01T00:36:27.639Z,3.40
2023-05-01T00:36:39.868Z,4.18
2023-05-01T00:36:52.347Z,4.13
2023-05-01T00:37:04.299Z,3.45
2023-05-01T00:37:17.401Z,3.13
2023-05-01T00:37:29.343Z,3.30
2023-05-01T00:37:41.841Z,3.33
2023-05-01T00:37:54.169Z,3.78
2023-05-01T00:38:06.069Z,4.00
2023-05-01T00:38:20.622Z,3.60
2023-05-01T00:38:32.517Z,3.70
2023-05-01T00:38:46.212Z,4.07
2023-05-01T00:38:58.119Z,4.20
2023-05-01T00:39:10.002Z,4.35
2023-05-01T00:39:22.705Z,3.72
2023-05-01T00:39:34.666Z,3.75
2023-05-01T00:39:46.632Z,3.58
2023-05-01T00:39:58.748Z,3.33
2023-05-01T00:40:11.187Z,3.40
2023-05-01T00:40:23.253Z,3.80
2023-05-01T00:40:44.843Z,4.30
2023-05-01T00:40:56.900Z,3.95
2023-05-01T00:41:08.840Z,3.97
2023-05-01T00:41:21.303Z,4.00
2023-05-01T00:41:34.397Z,4.18
2023-05-01T00:41:46.448Z,3.35
2023-05-01T00:41:58.386Z,3.08
2023-05-01T00:42:10.371Z,3.33
2023-05-01T00:42:22.433Z,3.92
2023-05-01T00:42:39.149Z,3.70
2023-05-01T00:42:51.252Z,3.58
2023-05-01T00:43:03.297Z,4.28
2023-05-01T00:43:15.575Z,4.18
2023-05-01T00:43:27.541Z,3.75
2023-05-01T00:43:39.452Z,3.25
2023-05-01T00:43:51.421Z,3.35
2023-05-01T00:44:03.393Z,4.30
2023-05-01T00:44:16.653Z,3.83
2023-05-01T00:44:28.596Z,3.03
2023-05-01T00:44:40.548Z,3.30
2023-05-01T00:44:52.446Z,4.30
2023-05-01T00:45:05.433Z,4.68
2023-05-01T00:45:17.811Z,3.78
2023-05-01T00:45:29.812Z,3.30
2023-05-01T00:45:45.317Z,3.30
2023-05-01T00:45:57.294Z,4.20
2023-05-01T00:46:12.807Z,4.25
2023-05-01T00:46:25.349Z,4.80
2023-05-01T00:46:37.487Z,5.15
2023-05-01T00:46:49.701Z,4.30
2023-05-01T00:47:02.378Z,3.55
2023-05-01T00:47:14.605Z,4.20
2023-05-01T00:47:26.935Z,4.60
2023-05-01T00:47:39.495Z,4.57
2023-05-01T00:47:51.818Z,5.07
2023-05-01T00:48:05.763Z,4.28
2023-05-01T00:48:17.879Z,4.15
2023-05-01T00:48:30.297Z,3.40
2023-05-01T00:48:43.067Z,4.47
2023-05-01T00:48:55.150Z,5.45
2023-05-01T00:49:07.185Z,4.97
2023-05-01T00:49:19.164Z,3.42
2023-05-01T00:49:31.477Z,3.67
2023-05-01T00:49:44.492Z,3.75
2023-05-01T00:49:57.262Z,3.92
2023-05-01T00:50:10.410Z,3.33
2023-05-01T00:50:22.673Z,3.28
2023-05-01T00:50:35.888Z,3.20
2023-05-01T00:50:49.133Z,3.63
2023-05-01T00:51:04.524Z,4.85
2023-05-01T00:51:16.485Z,5.10
2023-05-01T00:51:29.278Z,4.15
2023-05-01T00:51:42.537Z,5.40
2023-05-01T00:51:54.998Z,4.90
2023-05-01T00:52:07.003Z,3.58
2023-05-01T00:52:18.969Z,3.60
2023-05-01T00:52:30.879Z,3.75
2023-05-01T00:52:42.895Z,3.80
2023-05-01T00:52:55.460Z,3.63
2023-05-01T00:53:07.487Z,4.88
2023-05-01T00:53:20.305Z,4.85
2023-05-01T00:53:34.159Z,3.90
2023-05-01T00:53:46.582Z,3.50
2023-05-01T00:54:00.503Z,4.18
2023-05-01T00:54:13.117Z,4.85
2023-05-01T00:54:27.478Z,3.90
2023-05-01T00:54:44.896Z,3.65
2023-05-01T00:54:57.941Z,5.55
2023-05-01T00:55:10.087Z,5.28
2023-05-01T00:55:22.209Z,4.43
2023-05-01T00:55:35.811Z,4.50
2023-05-01T00:55:48.503Z,3.97
2023-05-01T00:56:00.922Z,3.30
2023-05-01T00:56:13.118Z,3.22
2023-05-01T00:56:26.267Z,3.20
2023-05-01T00:56:38.582Z,3.47
2023-05-01T00:56:52.115Z,3.95
2023-05-01T00:57:05.076Z,4.05
2023-05-01T00:57:18.061Z,3.50
2023-05-01T00:57:30.755Z,3.47
2023-05-01T00:57:42.820Z,3.95
2023-05-01T00:57:56.229Z,4.10
2023-05-01T00:58:08.811Z,3.58
2023-05-01T00:58:20.981Z,3.53
2023-05-01T00:58:33.218Z,3.20
2023-05-01T00:58:49.545Z,3.30
2023-05-01T00:59:01.432Z,4.20
2023-05-01T00:59:14.930Z,4.07
2023-05-01T00:59:27.033Z,3.33
2023-05-01T00:59:39.391Z,3.00
2023-05-01T00:59:51.384Z,3.03
2023-05-01T01:00:06.867Z,2.92
2023-05-01T01:00:19.418Z,3.00
2023-05-01T01:00:32.436Z,4.10
2023-05-01T01:00:44.507Z,4.22
2023-05-01T01:00:56.819Z,3.38
2023-05-01T01:01:09.936Z,5.00
2023-05-01T01:01:22.658Z,4.30
2023-05-01T01:01:37.477Z,3.15
2023-05-01T01:01:50.687Z,3.17
2023-05-01T01:02:03.081Z,3.35
2023-05-01T01:02:15.582Z,3.30
2023-05-01T01:02:27.691Z,4.00
2023-05-01T01:02:39.739Z,4.05
2023-05-01T01:02:52.108Z,3.63
2023-05-01T01:03:05.840Z,3.40
2023-05-01T01:03:17.864Z,3.60
2023-05-01T01:03:30.880Z,3.50
2023-05-01T01:03:42.808Z,3.35
2023-05-01T01:03:54.814Z,3.38
2023-05-01T01:04:06.904Z,3.38
2023-05-01T01:04:20.036Z,3.85
2023-05-01T01:04:33.442Z,3.80
2023-05-01T01:04:47.082Z,3.97
2023-05-01T01:04:59.350Z,6.60
2023-05-01T01:05:11.538Z,7.22
2023-05-01T01:05:28.120Z,5.43
2023-05-01T01:05:51.348Z,4.32
2023-05-01T01:06:20.076Z,3.40
2023-05-01T01:07:07.997Z,3.15
2023-05-01T01:07:37.613Z,3.20
2023-05-01T01:07:58.154Z,3.60
2023-05-01T01:08:22.998Z,3.33
2023-05-01T01:08:48.159Z,2.90
2023-05-01T01:09:08.123Z,4.28
2023-05-01T01:09:31.907Z,3.20
2023-05-01T01:10:05.788Z,3.13
2023-05-01T01:10:27.544Z,3.40
2023-05-01T01:11:12.829Z,3.92
2023-05-01T01:11:40.261Z,3.92
2023-05-01T01:12:01.433Z,4.03
2023-05-01T01:12:26.917Z,3.10
2023-05-01T01:13:08.247Z,3.22
2023-05-01T01:13:32.737Z,3.83
2023-05-01T01:14:00.939Z,2.92
2023-05-01T01:14:32.067Z,3.40
2023-05-01T01:14:55.827Z,3.60
2023-05-01T01:15:27.098Z,4.63
2023-05-01T01:15:53.674Z,4.05
2023-05-01T01:16:39.641Z,4.10
2023-05-01T01:17:07.960Z,3.70
2023-05-01T01:17:45.456Z,5.45
2023-05-01T01:18:08.064Z,4.20
2023-05-01T01:18:33.047Z,4.43
2023-05-01T01:18:56.409Z,4.60
2023-05-01T01:19:33.471Z,3.35
2023-05-01T01:20:15.885Z,4.30
2023-05-01T01:20:50.751Z,6.30
2023-05-01T01:21:16.085Z,3.88
2023-05-01T01:21:47.343Z,3.78
2023-05-01T01:22:07.686Z,4.25
2023-05-01T01:22:24.069Z,3.60
2023-05-01T01:22:38.566Z,3.80
2023-05-01T01:22:59.754Z,4.60
2023-05-01T01:23:35.749Z,3.47
2023-05-01T01:24:09.654Z,4.00
2023-05-01T01:24:43.299Z,3.33
2023-05-01T01:25:32.943Z,3.80
2023-05-01T01:26:12.995Z,3.40
2023-05-01T01:26:47.539Z,4.07
2023-05-01T01:27:24.151Z,3.28
2023-05-01T01:28:03.898Z,3.40
2023-05-01T01:28:24.821Z,3.95
2023-05-01T01:28:46.244Z,3.42
2023-05-01T01:29:34.937Z,4.60
2023-05-01T01:30:17.684Z,3.58
2023-05-01T01:31:01.514Z,3.00
2023-05-01T01:32:01.410Z,4.75
2023-05-01T01:33:07.992Z,4.32
2023-05-01T01:33:23.606Z,3.60
2023-05-01T01:33:54.502Z,4.22
2023-05-01T01:34:33.264Z,5.43
2023-05-01T01:34:51.748Z,3.10
2023-05-01T01:35:13.382Z,3.60
2023-05-01T01:35:26.958Z,3.33
2023-05-01T01:35:46.870Z,3.20
2023-05-01T01:36:04.598Z,4.03
2023-05-01T01:36:21.265Z,3.83
2023-05-01T01:36:59.872Z,4.32
2023-05-01T01:37:16.119Z,3.03
2023-05-01T01:37:43.802Z,2.97
2023-05-01T01:38:01.685Z,3.72
2023-05-01T01:38:19.500Z,4.18
2023-05-01T01:38:45.653Z,3.78
2023-05-01T01:39:07.996Z,4.43
2023-05-01T01:39:28.945Z,3.17
2023-05-01T01:39:49.528Z,3.10
2023-05-01T01:40:04.217Z,3.05
2023-05-01T01:40:22.320Z,3.70
2023-05-01T01:40:55.452Z,3.75
2023-05-01T01:41:13.635Z,5.63
2023-05-01T01:41:31.475Z,5.63
2023-05-01T01:41:49.568Z,4.60
2023-05-01T01:42:09.761Z,4.35
2023-05-01T01:42:37.563Z,4.95
2023-05-01T01:42:53.092Z,4.28
2023-05-01T01:43:10.586Z,4.38
2023-05-01T01:43:24.194Z,3.97
2023-05-01T01:43:45.479Z,3.95
2023-05-01T01:44:23.463Z,5.60
2023-05-01T01:44:42.938Z,3.75
2023-05-01T01:44:58.626Z,4.60
2023-05-01T01:45:21.221Z,4.93
2023-05-01T01:45:46.252Z,3.45
2023-05-01T01:46:07.445Z,4.05
2023-05-01T01:46:22.170Z,3.03
2023-05-01T01:46:38.213Z,3.28
2023-05-01T01:46:53.022Z,3.60
2023-05-01T01:47:08.348Z,3.58
2023-05-01T01:47:24.402Z,3.15
2023-05-01T01:47:40.978Z,4.57
2023-05-01T01:47:54.691Z,4.43
2023-05-01T01:48:11.520Z,3.15
2023-05-01T01:48:29.981Z,3.42
2023-05-01T01:48:46.472Z,3.85
2023-05-01T01:49:00.124Z,4.43
2023-05-01T01:49:20.718Z,3.83
2023-05-01T01:49:37.150Z,4.93
2023-05-01T01:49:52.606Z,6.18
2023-05-01T01:50:08.202Z,4.38
2023-05-01T01:50:25.757Z,3.08
2023-05-01T01:50:39.168Z,3.17
2023-05-01T01:50:54.878Z,4.13
2023-05-01T01:51:12.128Z,4.28
2023-05-01T01:51:26.840Z,3.63
2023-05-01T01:51:41.835Z,3.45
2023-05-01T01:51:55.598Z,3.00
2023-05-01T01:52:10.321Z,3.10
2023-05-01T01:52:24.952Z,3.45
2023-05-01T01:52:40.628Z,3.22
2023-05-01T01:52:54.520Z,3.65
2023-05-01T01:53:11.301Z,3.80
2023-05-01T01:53:26.288Z,3.70
2023-05-01T01:53:41.231Z,6.10
2023-05-01T01:53:57.937Z,6.00
2023-05-01T01:54:13.110Z,5.20
2023-05-01T01:54:33.011Z,4.85
2023-05-01T01:54:50.992Z,3.30
2023-05-01T01:55:08.864Z,4.20
2023-05-01T01:55:23.764Z,5.45
2023-05-01T01:55:37.935Z,5.13
2023-05-01T01:55:52.699Z,4.10
2023-05-01T01:56:07.126Z,3.70
2023-05-01T01:56:21.521Z,4.57
2023-05-01T01:56:35.485Z,4.35
2023-05-01T01:56:50.262Z,3.55
2023-05-01T01:57:04.373Z,3.42
2023-05-01T01:57:18.595Z,3.70
2023-05-01T01:57:31.568Z,3.50
2023-05-01T01:57:46.675Z,4.57
2023-05-01T01:58:00.780Z,4.95
2023-05-01T01:58:16.014Z,3.53
2023-05-01T01:58:29.689Z,3.70
2023-05-01T01:58:43.583Z,3.90
2023-05-01T01:58:56.883Z,4.18
2023-05-01T01:59:11.023Z,4.80
2023-05-01T01:59:24.088Z,4.40
2023-05-01T01:59:36.252Z,3.67
2023-05-01T01:59:51.259Z,3.70
2023-05-01T02:00:08.760Z,3.38
2023-05-01T02:00:22.629Z,3.63
2023-05-01T02:00:35.883Z,4.50
2023-05-01T02:00:49.181Z,4.82
2023-05-01T02:01:03.662Z,4.35
2023-05-01T02:01:18.516Z,3.95
2023-05-01T02:01:30.999Z,3.20
2023-05-01T02:01:44.670Z,3.30
2023-05-01T02:01:58.116Z,3.30
2023-05-01T02:02:11.337Z,3.25
2023-05-01T02:02:24.737Z,3.58
2023-05-01T02:02:39.428Z,3.72
2023-05-01T02:02:54.562Z,3.25
2023-05-01T02:03:07.162Z,3.13
2023-05-01T02:03:20.747Z,3.30
2023-05-01T02:03:35.405Z,3.25
2023-05-01T02:03:48.140Z,3.17
2023-05-01T02:04:01.716Z,3.50
2023-05-01T02:04:15.052Z,4.35
2023-05-01T02:04:28.215Z,4.33
2023-05-01T02:04:42.974Z,3.70
2023-05-01T02:04:58.226Z,3.72
2023-05-01T02:05:13.805Z,5.10
2023-05-01T02:05:27.210Z,6.07
2023-05-01T02:05:42.257Z,4.95
2023-05-01T02:05:59.761Z,3.78
2023-05-01T02:06:13.860Z,3.08
2023-05-01T02:06:27.676Z,3.50
2023-05-01T02:06:41.311Z,3.67
2023-05-01T02:06:59.667Z,3.40
2023-05-01T02:07:14.337Z,3.97
2023-05-01T02:07:29.003Z,4.03
2023-05-01T02:07:42.834Z,3.67
2023-05-01T02:07:56.366Z,3.67
2023-05-01T02:08:09.744Z,3.33
2023-05-01T02:08:23.478Z,3.45
2023-05-01T02:08:37.701Z,3.65
2023-05-01T02:08:51.548Z,3.80
2023-05-01T02:09:06.492Z,3.78
2023-05-01T02:09:21.133Z,3.80
2023-05-01T02:09:35.282Z,4.68
2023-05-01T02:09:49.608Z,4.68
2023-05-01T02:10:02.400Z,3.90
2023-05-01T02:10:16.168Z,3.47
2023-05-01T02:10:29.660Z,3.47
2023-05-01T02:10:43.179Z,3.85
2023-05-01T02:11:01.810Z,3.90
2023-05-01T02:11:17.478Z,3.90
2023-05-01T02:11:31.729Z,3.53
2023-05-01T02:11:44.638Z,3.43
2023-05-01T02:11:58.916Z,3.50
2023-05-01T02:12:13.228Z,3.47
2023-05-01T02:12:26.864Z,3.50
2023-05-01T02:12:40.198Z,3.40
2023-05-01T02:12:54.797Z,3.70
2023-05-01T02:13:09.603Z,3.35
2023-05-01T02:13:22.150Z,3.40
2023-05-01T02:13:36.481Z,3.58
2023-05-01T02:13:51.799Z,3.30
2023-05-01T02:14:05.877Z,3.28
2023-05-01T02:14:18.761Z,4.40
2023-05-01T02:14:33.392Z,4.80
2023-05-01T02:14:48.099Z,4.45
2023-05-01T02:15:00.932Z,5.50
2023-05-01T02:15:17.393Z,5.65
2023-05-01T02:15:30.791Z,4.40
2023-05-01T02:15:45.759Z,3.58
2023-05-01T02:16:02.758Z,3.20
2023-05-01T02:16:16.301Z,3.25
2023-05-01T02:16:28.564Z,3.60
2023-05-01T02:16:42.605Z,3.63
2023-05-01T02:16:57.317Z,3.28
2023-05-01T02:17:10.512Z,3.60
2023-05-01T02:17:24.033Z,4.45
2023-05-01T02:17:38.091Z,3.95
2023-05-01T02:17:52.830Z,2.90
2023-05-01T02:18:08.905Z,3.13
2023-05-01T02:18:22.180Z,3.13
2023-05-01T02:18:36.446Z,3.55
2023-05-01T02:18:50.395Z,3.33
2023-05-01T02:19:04.613Z,3.13
2023-05-01T02:19:18.053Z,3.10
2023-05-01T02:19:32.204Z,3.30
2023-05-01T02:19:45.190Z,4.40
2023-05-01T02:19:59.559Z,4.28
2023-05-01T02:20:12.982Z,3.90
2023-05-01T02:20:25.141Z,3.40
2023-05-01T02:20:39.042Z,3.22
2023-05-01T02:20:51.875Z,3.22
2023-05-01T02:21:04.607Z,3.50
2023-05-01T02:21:17.947Z,3.60
2023-05-01T02:21:31.083Z,3.90
2023-05-01T02:21:45.078Z,3.75
2023-05-01T02:21:58.621Z,3.63
2023-05-01T02:22:11.660Z,4.68
2023-05-01T02:22:25.820Z,5.18
2023-05-01T02:22:39.823Z,3.70
2023-05-01T02:22:53.599Z,3.53
2023-05-01T02:23:08.181Z,3.92
2023-05-01T02:23:20.250Z,4.32
2023-05-01T02:23:33.505Z,4.60
2023-05-01T02:23:45.402Z,3.60
2023-05-01T02:24:02.061Z,3.17
2023-05-01T02:24:14.367Z,3.33
2023-05-01T02:24:28.407Z,3.35
2023-05-01T02:24:43.721Z,3.85
2023-05-01T02:24:58.271Z,3.90
2023-05-01T02:25:12.305Z,3.38
2023-05-01T02:25:25.022Z,3.50
2023-05-01T02:25:39.334Z,4.10
2023-05-01T02:25:52.994Z,4.47
2023-05-01T02:26:06.628Z,5.25
2023-05-01T02:26:20.351Z,4.70
2023-05-01T02:26:38.691Z,4.75
2023-05-01T02:26:59.604Z,4.78
2023-05-01T02:27:19.871Z,3.15
2023-05-01T02:27:35.915Z,3.83
2023-05-01T02:27:50.359Z,3.70
2023-05-01T02:28:08.685Z,3.78
2023-05-01T02:28:23.330Z,4.78
2023-05-01T02:28:41.255Z,4.78
2023-05-01T02:28:53.574Z,3.67
2023-05-01T02:29:07.404Z,3.83
2023-05-01T02:29:19.304Z,3.80
2023-05-01T02:29:31.229Z,4.10
2023-05-01T02:29:44.226Z,4.38
2023-05-01T02:29:56.683Z,4.50
2023-05-01T02:30:09.564Z,4.05
2023-05-01T02:30:21.663Z,3.60
2023-05-01T02:30:33.652Z,3.75
2023-05-01T02:30:47.072Z,4.00
2023-05-01T02:30:58.963Z,4.10
2023-05-01T02:31:11.421Z,3.88
2023-05-01T02:31:23.495Z,3.60
2023-05-01T02:31:35.673Z,3.58
2023-05-01T02:31:47.910Z,4.18
2023-05-01T02:32:01.189Z,4.15
2023-05-01T02:32:13.297Z,7.03
2023-05-01T02:32:25.924Z,8.80
2023-05-01T02:32:37.977Z,7.68
2023-05-01T02:32:50.505Z,5.75
2023-05-01T02:33:03.108Z,4.10
2023-05-01T02:33:15.324Z,4.47
2023-05-01T02:33:27.287Z,3.97
2023-05-01T02:33:39.256Z,3.53
2023-05-01T02:33:51.604Z,4.10
2023-05-01T02:34:03.608Z,3.50
2023-05-01T02:34:15.535Z,3.75
2023-05-01T02:34:27.973Z,6.38
2023-05-01T02:34:40.057Z,6.75
2023-05-01T02:34:52.059Z,5.25
2023-05-01T02:35:04.729Z,4.88
2023-05-01T02:35:17.674Z,4.05
2023-05-01T02:35:29.632Z,3.45
2023-05-01T02:35:44.015Z,3.45
2023-05-01T02:35:55.985Z,3.55
2023-05-01T02:36:08.471Z,3.40
2023-05-01T02:36:21.491Z,3.40
2023-05-01T02:36:33.441Z,4.25
2023-05-01T02:36:45.367Z,5.07
2023-05-01T02:36:57.296Z,4.70
2023-05-01T02:37:11.765Z,4.95
2023-05-01T02:37:23.862Z,6.50
2023-05-01T02:37:36.124Z,6.40
2023-05-01T02:37:48.351Z,4.95
2023-05-01T02:38:00.322Z,3.88
2023-05-01T02:38:12.912Z,3.47
2023-05-01T02:38:24.895Z,3.78
2023-05-01T02:38:37.071Z,4.30
2023-05-01T02:38:51.807Z,4.13
2023-05-01T02:39:05.501Z,4.05
2023-05-01T02:39:17.582Z,4.68
2023-05-01T02:39:29.605Z,4.10
2023-05-01T02:39:41.685Z,4.10
2023-05-01T02:39:54.772Z,3.58
2023-05-01T02:40:07.582Z,3.20
2023-05-01T02:40:19.735Z,3.50
2023-05-01T02:40:32.817Z,3.90
2023-05-01T02:40:50.545Z,4.00
2023-05-01T02:41:03.676Z,3.78
2023-05-01T02:41:16.413Z,3.47
2023-05-01T02:41:30.636Z,3.55
2023-05-01T02:41:42.947Z,3.88
2023-05-01T02:41:58.652Z,4.60
2023-05-01T02:42:12.720Z,4.70
2023-05-01T02:42:27.151Z,3.95
2023-05-01T02:42:41.071Z,3.83
2023-05-01T02:42:53.220Z,4.50
2023-05-01T02:43:09.770Z,3.83
2023-05-01T02:43:22.869Z,3.78
2023-05-01T02:43:36.586Z,3.50
2023-05-01T02:43:56.783Z,3.47
2023-05-01T02:44:11.331Z,3.67
2023-05-01T02:44:25.182Z,3.80
2023-05-01T02:44:41.771Z,4.05
2023-05-01T02:45:05.533Z,6.68
2023-05-01T02:45:23.608Z,4.25
2023-05-01T02:45:39.256Z,4.05
2023-05-01T02:45:52.165Z,4.78
2023-05-01T02:46:05.717Z,4.30
2023-05-01T02:46:20.602Z,4.28
2023-05-01T02:46:36.763Z,4.93
2023-05-01T02:46:52.118Z,4.30
2023-05-01T02:47:07.082Z,4.20
2023-05-01T02:47:23.107Z,4.93
2023-05-01T02:47:38.718Z,3.95
2023-05-01T02:47:54.452Z,5.45
2023-05-01T02:48:09.942Z,5.80
2023-05-01T02:48:25.419Z,5.07
2023-05-01T02:48:38.590Z,5.15
2023-05-01T02:48:52.629Z,4.30
2023-05-01T02:49:06.434Z,4.00
2023-05-01T02:49:20.274Z,3.72
2023-05-01T02:49:33.585Z,4.35
2023-05-01T02:49:48.050Z,5.15
2023-05-01T02:50:00.734Z,4.93
2023-05-01T02:50:15.083Z,4.63
2023-05-01T02:50:27.636Z,7.03
2023-05-01T02:50:41.091Z,7.53
2023-05-01T02:50:55.479Z,7.10
2023-05-01T02:51:07.959Z,4.60
2023-05-01T02:51:23.029Z,4.75
2023-05-01T02:51:37.278Z,4.05
2023-05-01T02:51:50.061Z,3.75
2023-05-01T02:52:03.086Z,3.92
2023-05-01T02:52:17.282Z,3.95
2023-05-01T02:52:30.076Z,3.60
2023-05-01T02:52:43.562Z,3.67
2023-05-01T02:52:56.946Z,4.40
2023-05-01T02:53:09.578Z,4.75
2023-05-01T02:53:22.453Z,4.13
2023-05-01T02:53:36.268Z,4.20
2023-05-01T02:53:48.614Z,4.05
2023-05-01T02:54:01.276Z,3.63
2023-05-01T02:54:13.896Z,3.38
2023-05-01T02:54:25.863Z,4.95
2023-05-01T02:54:39.277Z,5.90
2023-05-01T02:54:51.803Z,5.68
2023-05-01T02:55:05.469Z,4.45
2023-05-01T02:55:18.270Z,6.07
2023-05-01T02:55:30.304Z,6.28
2023-05-01T02:55:43.708Z,5.97
2023-05-01T02:55:56.582Z,4.60
2023-05-01T02:56:08.743Z,4.45
2023-05-01T02:56:23.440Z,5.50
2023-05-01T02:56:35.695Z,5.72
2023-05-01T02:56:47.636Z,4.75
2023-05-01T02:57:02.263Z,4.13
2023-05-01T02:57:14.432Z,4.13
2023-05-01T02:57:27.594Z,5.32
2023-05-01T02:57:39.494Z,5.35
2023-05-01T02:57:51.872Z,4.60
2023-05-01T02:58:03.843Z,4.43
2023-05-01T02:58:17.109Z,4.55
2023-05-01T02:58:31.254Z,4.80
2023-05-01T02:58:44.387Z,5.03
2023-05-01T02:58:56.846Z,4.22
2023-05-01T02:59:08.802Z,4.20
2023-05-01T02:59:20.735Z,4.60
2023-05-01T02:59:34.747Z,5.10
2023-05-01T02:59:46.796Z,5.00
2023-05-01T02:59:58.742Z,4.93
2023-05-01T03:00:13.687Z,4.78
2023-05-01T03:00:26.656Z,7.55
2023-05-01T03:00:38.564Z,7.00
2023-05-01T03:00:50.768Z,4.55
2023-05-01T03:01:03.509Z,5.80
2023-05-01T03:01:18.414Z,6.43
2023-05-01T03:01:30.426Z,4.65
2023-05-01T03:01:42.487Z,4.43
2023-05-01T03:01:54.819Z,4.35
2023-05-01T03:02:07.358Z,4.60
2023-05-01T03:02:19.262Z,4.10
2023-05-01T03:02:31.992Z,3.58
2023-05-01T03:02:44.940Z,3.63
2023-05-01T03:02:56.981Z,3.75
2023-05-01T03:03:08.947Z,4.88
2023-05-01T03:03:21.267Z,4.80
2023-05-01T03:03:33.186Z,4.95
2023-05-01T03:03:46.617Z,3.80
2023-05-01T03:03:58.787Z,4.85
2023-05-01T03:04:10.789Z,4.47
2023-05-01T03:04:22.923Z,3.97
2023-05-01T03:04:35.046Z,4.50
2023-05-01T03:04:47.385Z,5.15
2023-05-01T03:04:59.383Z,4.15
2023-05-01T03:05:11.325Z,4.10
2023-05-01T03:05:23.403Z,3.90
2023-05-01T03:05:35.369Z,7.00
2023-05-01T03:05:47.771Z,7.65
2023-05-01T03:06:00.013Z,5.07
2023-05-01T03:06:14.221Z,4.93
2023-05-01T03:06:28.821Z,4.55
2023-05-01T03:06:40.902Z,4.57
2023-05-01T03:06:52.987Z,4.53
2023-05-01T03:07:05.054Z,3.55
2023-05-01T03:07:17.531Z,3.53
2023-05-01T03:07:34.977Z,3.72
2023-05-01T03:07:47.313Z,3.53
2023-05-01T03:07:59.446Z,4.07
2023-05-01T03:08:11.496Z,4.68
2023-05-01T03:08:23.471Z,4.80
2023-05-01T03:08:36.469Z,4.38
2023-05-01T03:08:48.818Z,4.40
2023-05-01T03:09:01.051Z,4.30
2023-05-01T03:09:13.709Z,4.57
2023-05-01T03:09:25.669Z,4.97
2023-05-01T03:09:38.156Z,4.53
2023-05-01T03:09:50.319Z,4.15
2023-05-01T03:10:08.121Z,4.35
2023-05-01T03:10:20.059Z,4.50
2023-05-01T03:10:32.062Z,3.78
2023-05-01T03:10:44.222Z,3.53
2023-05-01T03:10:56.164Z,3.55
2023-05-01T03:11:08.426Z,3.72
2023-05-01T03:11:21.133Z,3.97
2023-05-01T03:11:33.077Z,4.93
2023-05-01T03:11:45.052Z,5.25
2023-05-01T03:11:57.540Z,5.07
2023-05-01T03:12:09.468Z,4.78
2023-05-01T03:12:21.638Z,3.95
2023-05-01T03:12:33.976Z,3.33
2023-05-01T03:12:45.920Z,3.53
2023-05-01T03:12:57.915Z,3.30
2023-05-01T03:13:11.223Z,3.70
2023-05-01T03:13:26.180Z,3.70
2023-05-01T03:13:38.051Z,3.20
2023-05-01T03:13:50.030Z,3.50
2023-05-01T03:14:02.231Z,4.43
2023-05-01T03:14:15.944Z,4.28
2023-05-01T03:14:28.637Z,4.20
2023-05-01T03:14:40.938Z,4.65
2023-05-01T03:14:52.863Z,4.40
2023-05-01T03:15:05.876Z,3.60
2023-05-01T03:15:18.510Z,3.65
2023-05-01T03:15:30.427Z,3.53
2023-05-01T03:15:42.694Z,4.00
2023-05-01T03:15:54.825Z,5.65
2023-05-01T03:16:07.602Z,5.93
2023-05-01T03:16:19.582Z,5.65
2023-05-01T03:16:31.606Z,4.15
2023-05-01T03:16:44.393Z,4.90
2023-05-01T03:16:56.698Z,4.65
2023-05-01T03:17:08.637Z,4.07
2023-05-01T03:17:22.019Z,3.90
2023-05-01T03:17:34.369Z,4.65